Dost 1 — TCPI — position and weather

sailwx.info

Track history (hours):
 
Tides and Currents Weather Stations Pressure Air Temp Water Temp Dewpoint Dewpoint Depression Visibility Wind Speed Wind Dir Waves Ship Positions

Dost 1

Last reported at 2016-Mar-11 12:20 UTC. Time now 2016-Jun-26 17:26 UTC.
Position N 37°25' E 025°58'.
Warning: this ship's position is months out of date.

Length 115 m; draft 7.6 m.

Type: Cargo ship. MMSI: 271000303.

Date/timePositionNaut miles runAvg speedWind from/ knotsBaromVisibWave heightAir tempDewpointWater temp
2016-Mar-11 12:20N 37°25' E 025°58'910.5
2016-Mar-11 11:32N 37°30' E 025°50'1410.5
2016-Mar-11 10:14N 37°44' E 025°47'240 8.9
2016-Mar-10 07:17N 40°56' E 028°54'  
2016-Mar-07 16:32N 44°05' E 034°39'1211.3
2016-Mar-07 15:31N 44°11' E 034°53'1111.4
2016-Mar-07 14:33N 44°17' E 035°06'1111.4
2016-Mar-07 13:33N 44°23' E 035°20'1111.3
2016-Mar-07 12:33N 44°28' E 035°34'1610.9
2016-Mar-07 11:07N 44°35' E 035°54'1710.3
2016-Mar-07 09:26N 44°44' E 036°14'27 9.2
2016-Mar-07 06:33N 45°08' E 036°29'9 9.1
2016-Mar-07 05:33N 45°17' E 036°28'9 9.3
2016-Mar-07 04:33N 45°22' E 036°40'7 6.7
2016-Mar-07 03:33N 45°28' E 036°38'0 0.2
2016-Mar-07 02:32N 45°29' E 036°38'0 0.1
2016-Mar-07 01:29N 45°28' E 036°38'  
2016-Mar-03 08:20N 47°03' E 037°30'10 8.7
2016-Mar-03 07:10N 46°53' E 037°27'16 9.9
2016-Mar-03 05:31N 46°40' E 037°13'6811.2
2016-Mar-02 23:24N 45°35' E 036°45'911.3
2016-Mar-02 22:34N 45°26' E 036°41'9 8.9
2016-Mar-02 21:33N 45°19' E 036°33'8 8.0
2016-Mar-02 20:33N 45°12' E 036°28'1211.3
2016-Mar-02 19:32N 45°00' E 036°30'5210.4
2016-Mar-02 14:33N 44°20' E 035°45'1211.4
2016-Mar-02 13:31N 44°13' E 035°32'1111.8
2016-Mar-02 12:33N 44°07' E 035°18'1212.3
2016-Mar-02 11:33N 43°60' E 035°04'3012.3
2016-Mar-02 09:09N 43°43' E 034°30'712.3
2016-Mar-02 08:33N 43°39' E 034°22'  
Track history (hours):
 
Tides and Currents Weather Stations Pressure Air Temp Water Temp Dewpoint Dewpoint Depression Visibility Wind Speed Wind Dir Waves Ship Positions

Dost 1

Last reported at 2016-Mar-11 12:20 UTC. Time now 2016-Jun-26 17:26 UTC.
Position N 37°25' E 025°58'.
Warning: this ship's position is months out of date.

Length 115 m; draft 7.6 m.

Type: Cargo ship. MMSI: 271000303.

Date/timePositionNaut miles runAvg speedWind from/ knotsBaromVisibWave heightAir tempDewpointWater temp
2016-Mar-11 12:20N 37°25' E 025°58'910.5
2016-Mar-11 11:32N 37°30' E 025°50'1410.5
2016-Mar-11 10:14N 37°44' E 025°47'240 8.9
2016-Mar-10 07:17N 40°56' E 028°54'  
2016-Mar-07 16:32N 44°05' E 034°39'1211.3
2016-Mar-07 15:31N 44°11' E 034°53'1111.4
2016-Mar-07 14:33N 44°17' E 035°06'1111.4
2016-Mar-07 13:33N 44°23' E 035°20'1111.3
2016-Mar-07 12:33N 44°28' E 035°34'1610.9
2016-Mar-07 11:07N 44°35' E 035°54'1710.3
2016-Mar-07 09:26N 44°44' E 036°14'27 9.2
2016-Mar-07 06:33N 45°08' E 036°29'9 9.1
2016-Mar-07 05:33N 45°17' E 036°28'9 9.3
2016-Mar-07 04:33N 45°22' E 036°40'7 6.7
2016-Mar-07 03:33N 45°28' E 036°38'0 0.2
2016-Mar-07 02:32N 45°29' E 036°38'0 0.1
2016-Mar-07 01:29N 45°28' E 036°38'  
2016-Mar-03 08:20N 47°03' E 037°30'10 8.7
2016-Mar-03 07:10N 46°53' E 037°27'16 9.9
2016-Mar-03 05:31N 46°40' E 037°13'6811.2
2016-Mar-02 23:24N 45°35' E 036°45'911.3
2016-Mar-02 22:34N 45°26' E 036°41'9 8.9
2016-Mar-02 21:33N 45°19' E 036°33'8 8.0
2016-Mar-02 20:33N 45°12' E 036°28'1211.3
2016-Mar-02 19:32N 45°00' E 036°30'5210.4
2016-Mar-02 14:33N 44°20' E 035°45'1211.4
2016-Mar-02 13:31N 44°13' E 035°32'1111.8
2016-Mar-02 12:33N 44°07' E 035°18'1212.3
2016-Mar-02 11:33N 43°60' E 035°04'3012.3
2016-Mar-02 09:09N 43°43' E 034°30'712.3
2016-Mar-02 08:33N 43°39' E 034°22'  

Dump ship's entire track history